Observation data for Roaring Springs on 06/29/2020      Previous  Date  Next       Current Mesonet Observations  Soil Data  Daily Summary Page  Observations in Plain Language
KRRS 290500Z 17008KT 27/13 A2969 RMK A01 T02730126  RH  042%=      5-min Rain = 0
KRRS 290505Z 18009KT 28/13 A2969 RMK A01 T02760129  RH  042%=      5-min Rain = 0
KRRS 290510Z 18010KT 28/13 A2969 RMK A01 T02790130  RH  042%=      5-min Rain = 0
KRRS 290515Z 18011KT 28/13 A297 RMK A01 T02800131  RH  041%=      5-min Rain = 0
KRRS 290520Z 18011KT 28/13 A297 RMK A01 T02810132  RH  041%=      5-min Rain = 0
KRRS 290525Z 18011KT 28/13 A297 RMK A01 T02820132  RH  041%=      5-min Rain = 0
KRRS 290530Z 18012KT 28/13 A297 RMK A01 T02820133  RH  042%=      5-min Rain = 0
KRRS 290535Z 18013KT 28/13 A2969 RMK A01 T02830134  RH  042%=      5-min Rain = 0
KRRS 290540Z 18013KT 28/14 A2969 RMK A01 T02830135  RH  042%=      5-min Rain = 0
KRRS 290545Z 18012G18KT 28/14 A2969 RMK A01 T02830135  RH  042%=      5-min Rain = 0
KRRS 290550Z 18012KT 28/14 A2969 RMK A01 T02810136  RH  043%=      5-min Rain = 0
KRRS 290555Z 18012G17KT 28/14 A2969 RMK A01 T02790137  RH  043%=      5-min Rain = 0
KRRS 290600Z 18013G18KT 28/14 A2969 RMK A01 T02800138  RH  044%=      5-min Rain = 0
KRRS 290605Z 18013G18KT 28/14 A2969 RMK A01 T02790139  RH  044%=      5-min Rain = 0
KRRS 290610Z 18014KT 28/14 A297 RMK A01 T02790141  RH  045%=      5-min Rain = 0
KRRS 290615Z 18015KT 28/14 A297 RMK A01 T02790143  RH  045%=      5-min Rain = 0
KRRS 290620Z 18013G20KT 28/15 A297 RMK A01 T02780145  RH  046%=      5-min Rain = 0
KRRS 290625Z 18014KT 28/15 A297 RMK A01 T02770146  RH  047%=      5-min Rain = 0
KRRS 290630Z 18015KT 28/15 A297 RMK A01 T02780148  RH  047%=      5-min Rain = 0
KRRS 290635Z 19015G21KT 28/15 A2969 RMK A01 T02800150  RH  047%=      5-min Rain = 0
KRRS 290640Z 19015G20KT 28/15 A2969 RMK A01 T02800152  RH  048%=      5-min Rain = 0
KRRS 290645Z 19017KT 28/16 A2969 RMK A01 T02810155  RH  048%=      5-min Rain = 0
KRRS 290650Z 19015G20KT 28/16 A2969 RMK A01 T02820157  RH  049%=      5-min Rain = 0
KRRS 290655Z 19016G24KT 28/16 A2969 RMK A01 T02810160  RH  050%=      5-min Rain = 0
KRRS 290700Z 19014G19KT 28/16 A2969 RMK A01 T02800162  RH  051%=      5-min Rain = 0
KRRS 290705Z 19015KT 28/16 A2969 RMK A01 T02810164  RH  052%=      5-min Rain = 0
KRRS 290710Z 19015KT 28/17 A2969 RMK A01 T02810167  RH  052%=      5-min Rain = 0
KRRS 290715Z 19015G22KT 28/17 A2968 RMK A01 T02800168  RH  053%=      5-min Rain = 0
KRRS 290720Z 19016G21KT 28/17 A2968 RMK A01 T02800170  RH  054%=      5-min Rain = 0
KRRS 290725Z 19015G21KT 28/17 A2968 RMK A01 T02800171  RH  054%=      5-min Rain = 0
KRRS 290730Z 19017G24KT 28/17 A2968 RMK A01 T02800173  RH  055%=      5-min Rain = 0
KRRS 290735Z 19018G23KT 28/18 A2968 RMK A01 T02810175  RH  055%=      5-min Rain = 0
KRRS 290740Z 19016G22KT 28/18 A2968 RMK A01 T02800176  RH  056%=      5-min Rain = 0
KRRS 290745Z 19016G22KT 28/18 A2968 RMK A01 T02790177  RH  057%=      5-min Rain = 0
KRRS 290750Z 19016G23KT 28/18 A2968 RMK A01 T02780177  RH  057%=      5-min Rain = 0
KRRS 290755Z 19016G23KT 28/18 A2968 RMK A01 T02780178  RH  057%=      5-min Rain = 0
KRRS 290800Z 19017G22KT 28/18 A2968 RMK A01 T02770178  RH  058%=      5-min Rain = 0
KRRS 290805Z 19016G21KT 28/18 A2968 RMK A01 T02760179  RH  058%=      5-min Rain = 0
KRRS 290810Z 19017G22KT 28/18 A2968 RMK A01 T02760179  RH  058%=      5-min Rain = 0
KRRS 290815Z 19015G20KT 28/18 A2968 RMK A01 T02750179  RH  059%=      5-min Rain = 0
KRRS 290820Z 19015KT 27/18 A2968 RMK A01 T02740179  RH  059%=      5-min Rain = 0
KRRS 290825Z 19015G20KT 27/18 A2968 RMK A01 T02730180  RH  060%=      5-min Rain = 0
KRRS 290830Z 19014KT 27/18 A2968 RMK A01 T02720180  RH  060%=      5-min Rain = 0
KRRS 290835Z 19016KT 27/18 A2968 RMK A01 T02710180  RH  061%=      5-min Rain = 0
KRRS 290840Z 19016G21KT 27/18 A2968 RMK A01 T02710180  RH  061%=      5-min Rain = 0
KRRS 290845Z 19015KT 27/18 A2968 RMK A01 T02710180  RH  061%=      5-min Rain = 0
KRRS 290850Z 19015G21KT 27/18 A2969 RMK A01 T02700180  RH  061%=      5-min Rain = 0
KRRS 290855Z 18016G22KT 27/18 A2969 RMK A01 T02700180  RH  061%=      5-min Rain = 0
KRRS 290900Z 18014G20KT 27/18 A2969 RMK A01 T02680180  RH  061%=      5-min Rain = 0
KRRS 290905Z 18016G23KT 27/18 A2969 RMK A01 T02680179  RH  061%=      5-min Rain = 0
KRRS 290910Z 18015G23KT 27/18 A2969 RMK A01 T02680179  RH  061%=      5-min Rain = 0
KRRS 290915Z 19015KT 27/18 A2969 RMK A01 T02680179  RH  061%=      5-min Rain = 0
KRRS 290920Z 18016G21KT 27/18 A2969 RMK A01 T02670179  RH  062%=      5-min Rain = 0
KRRS 290925Z 18015G21KT 27/18 A2969 RMK A01 T02670179  RH  062%=      5-min Rain = 0
KRRS 290930Z 18015G21KT 27/18 A2969 RMK A01 T02660179  RH  062%=      5-min Rain = 0
KRRS 290935Z 19016G21KT 27/18 A2969 RMK A01 T02660179  RH  062%=      5-min Rain = 0
KRRS 290940Z 19015G20KT 27/18 A2969 RMK A01 T02660179  RH  062%=      5-min Rain = 0
KRRS 290945Z 19017G22KT 27/18 A2969 RMK A01 T02660179  RH  062%=      5-min Rain = 0
KRRS 290950Z 19018G24KT 27/18 A2969 RMK A01 T02670180  RH  062%=      5-min Rain = 0
KRRS 290955Z 19017G23KT 27/18 A2969 RMK A01 T02670180  RH  062%=      5-min Rain = 0
KRRS 291000Z 19017G24KT 27/18 A297 RMK A01 T02670181  RH  062%=      5-min Rain = 0
KRRS 291005Z 19017G25KT 27/18 A297 RMK A01 T02660181  RH  063%=      5-min Rain = 0
KRRS 291010Z 19017G22KT 27/18 A297 RMK A01 T02660182  RH  063%=      5-min Rain = 0
KRRS 291015Z 19018G25KT 27/18 A297 RMK A01 T02650182  RH  064%=      5-min Rain = 0
KRRS 291020Z 19016G22KT 26/18 A297 RMK A01 T02640182  RH  064%=      5-min Rain = 0
KRRS 291025Z 19018G23KT 26/18 A297 RMK A01 T02630183  RH  065%=      5-min Rain = 0
KRRS 291030Z 19017KT 26/18 A297 RMK A01 T02620183  RH  065%=      5-min Rain = 0
KRRS 291035Z 19015G21KT 26/18 A297 RMK A01 T02610183  RH  066%=      5-min Rain = 0
KRRS 291040Z 19015G20KT 26/18 A297 RMK A01 T02590183  RH  066%=      5-min Rain = 0
KRRS 291045Z 19014G19KT 26/18 A297 RMK A01 T02580184  RH  067%=      5-min Rain = 0
KRRS 291050Z 19015G20KT 26/18 A297 RMK A01 T02580184  RH  067%=      5-min Rain = 0
KRRS 291055Z 19016G23KT 26/18 A297 RMK A01 T02580184  RH  067%=      5-min Rain = 0
KRRS 291100Z 19016KT 26/18 A297 RMK A01 T02570184  RH  068%=      5-min Rain = 0
KRRS 291105Z 19015G21KT 26/19 A297 RMK A01 T02570185  RH  068%=      5-min Rain = 0
KRRS 291110Z 19016KT 26/19 A297 RMK A01 T02570185  RH  068%=      5-min Rain = 0
KRRS 291115Z 20016G22KT 26/19 A297 RMK A01 T02560185  RH  068%=      5-min Rain = 0
KRRS 291120Z 20016G23KT 26/19 A297 RMK A01 T02570185  RH  068%=      5-min Rain = 0
KRRS 291125Z 20016KT 26/19 A297 RMK A01 T02560186  RH  069%=      5-min Rain = 0
KRRS 291130Z 19016G21KT 26/19 A2971 RMK A01 T02560186  RH  069%=      5-min Rain = 0
KRRS 291135Z 19018G25KT 26/19 A2971 RMK A01 T02560186  RH  069%=      5-min Rain = 0
KRRS 291140Z 20015G22KT 26/19 A2971 RMK A01 T02550186  RH  069%=      5-min Rain = 0
KRRS 291145Z 20018G23KT 26/19 A2971 RMK A01 T02550187  RH  070%=      5-min Rain = 0
KRRS 291150Z 20016G21KT 25/19 A2972 RMK A01 T02540187  RH  070%=      5-min Rain = 0
KRRS 291155Z 20016G21KT 25/19 A2972 RMK A01 T02540187  RH  070%=      5-min Rain = 0
KRRS 291200Z 20017G24KT 25/19 A2972 RMK A01 T02540188  RH  070%=      5-min Rain = 0
KRRS 291205Z 20018KT 25/19 A2972 RMK A01 T02540188  RH  071%=      5-min Rain = 0
KRRS 291210Z 20017G25KT 25/19 A2972 RMK A01 T02540188  RH  071%=      5-min Rain = 0
KRRS 291215Z 20017G22KT 26/19 A2972 RMK A01 T02550189  RH  071%=      5-min Rain = 0
KRRS 291220Z 20016G21KT 25/19 A2972 RMK A01 T02540189  RH  071%=      5-min Rain = 0
KRRS 291225Z 20016G22KT 25/19 A2972 RMK A01 T02540189  RH  071%=      5-min Rain = 0
KRRS 291230Z 20016G24KT 25/19 A2972 RMK A01 T02540190  RH  071%=      5-min Rain = 0
KRRS 291235Z 20016G21KT 26/19 A2972 RMK A01 T02550190  RH  071%=      5-min Rain = 0
KRRS 291240Z 20016G21KT 26/19 A2972 RMK A01 T02550190  RH  071%=      5-min Rain = 0
KRRS 291245Z 20018G23KT 25/19 A2972 RMK A01 T02540190  RH  072%=      5-min Rain = 0
KRRS 291250Z 20016KT 26/19 A2972 RMK A01 T02560191  RH  071%=      5-min Rain = 0
KRRS 291255Z 20015G20KT 26/19 A2972 RMK A01 T02600192  RH  070%=      5-min Rain = 0
KRRS 291300Z 20016G25KT 26/19 A2972 RMK A01 T02620192  RH  069%=      5-min Rain = 0
KRRS 291305Z 20018G24KT 26/19 A2972 RMK A01 T02640192  RH  068%=      5-min Rain = 0
KRRS 291310Z 20018G25KT 27/19 A2972 RMK A01 T02660192  RH  067%=      5-min Rain = 0
KRRS 291315Z 20018G23KT 27/19 A2972 RMK A01 T02670191  RH  067%=      5-min Rain = 0
KRRS 291320Z 20017G24KT 27/19 A2972 RMK A01 T02690192  RH  066%=      5-min Rain = 0
KRRS 291325Z 21016G21KT 27/19 A2973 RMK A01 T02710191  RH  065%=      5-min Rain = 0
KRRS 291330Z 21016G21KT 27/19 A2973 RMK A01 T02740191  RH  064%=      5-min Rain = 0
KRRS 291335Z 20020G27KT 28/19 A2972 RMK A01 T02750189  RH  063%=      5-min Rain = 0
KRRS 291340Z 21018G24KT 28/19 A2973 RMK A01 T02760188  RH  062%=      5-min Rain = 0
KRRS 291345Z 21016G25KT 28/19 A2973 RMK A01 T02800188  RH  061%=      5-min Rain = 0
KRRS 291350Z 21018G26KT 28/19 A2973 RMK A01 T02820185  RH  059%=      5-min Rain = 0
KRRS 291355Z 21020G26KT 28/18 A2973 RMK A01 T02820184  RH  058%=      5-min Rain = 0
KRRS 291400Z 21017G22KT 28/18 A2973 RMK A01 T02840184  RH  058%=      5-min Rain = 0
KRRS 291405Z 20016G23KT 29/18 A2973 RMK A01 T02880184  RH  056%=      5-min Rain = 0
KRRS 291410Z 20019KT 29/18 A2973 RMK A01 T02890182  RH  055%=      5-min Rain = 0
KRRS 291415Z 20016G22KT 29/18 A2973 RMK A01 T02920183  RH  055%=      5-min Rain = 0
KRRS 291420Z 20017KT 29/18 A2973 RMK A01 T02940182  RH  054%=      5-min Rain = 0
KRRS 291425Z 20018G24KT 30/18 A2973 RMK A01 T02950180  RH  053%=      5-min Rain = 0
KRRS 291430Z 20018G24KT 30/18 A2973 RMK A01 T02950180  RH  053%=      5-min Rain = 0
KRRS 291435Z 20017G22KT 30/18 A2974 RMK A01 T02990180  RH  052%=      5-min Rain = 0
KRRS 291440Z 20017G23KT 30/18 A2974 RMK A01 T03000180  RH  051%=      5-min Rain = 0
KRRS 291445Z 20016G23KT 30/18 A2974 RMK A01 T03030180  RH  050%=      5-min Rain = 0
KRRS 291450Z 20018G23KT 31/18 A2974 RMK A01 T03050177  RH  049%=      5-min Rain = 0
KRRS 291455Z 20018G23KT 31/17 A2974 RMK A01 T03060174  RH  048%=      5-min Rain = 0
KRRS 291500Z 21018G23KT 31/17 A2974 RMK A01 T03070172  RH  047%=      5-min Rain = 0
KRRS 291505Z 21016G22KT 31/17 A2974 RMK A01 T03130170  RH  045%=      5-min Rain = 0
KRRS 291510Z 21018G24KT 32/16 A2974 RMK A01 T03160164  RH  042%=      5-min Rain = 0
KRRS 291515Z 20017G22KT 32/16 A2973 RMK A01 T03180163  RH  041%=      5-min Rain = 0
KRRS 291520Z 21019G24KT 32/15 A2973 RMK A01 T03190152  RH  038%=      5-min Rain = 0
KRRS 291525Z 21018G26KT 32/15 A2973 RMK A01 T03230148  RH  037%=      5-min Rain = 0
KRRS 291530Z 21020G25KT 33/14 A2973 RMK A01 T03250140  RH  034%=      5-min Rain = 0
KRRS 291535Z 21019G25KT 33/14 A2973 RMK A01 T03260138  RH  033%=      5-min Rain = 0
KRRS 291540Z 21018G23KT 33/14 A2973 RMK A01 T03290137  RH  033%=      5-min Rain = 0
KRRS 291545Z 22017G25KT 33/13 A2973 RMK A01 T03320133  RH  031%=      5-min Rain = 0
KRRS 291550Z 21019G25KT 34/13 A2973 RMK A01 T03350132  RH  030%=      5-min Rain = 0
KRRS 291555Z 21018G24KT 34/13 A2973 RMK A01 T03360128  RH  030%=      5-min Rain = 0
KRRS 291600Z 21016G22KT 34/13 A2973 RMK A01 T03420129  RH  029%=      5-min Rain = 0
KRRS 291605Z 22018G24KT 34/12 A2973 RMK A01 T03400120  RH  027%=      5-min Rain = 0
KRRS 291610Z 23017G23KT 34/12 A2973 RMK A01 T03430116  RH  026%=      5-min Rain = 0
KRRS 291615Z 22016G21KT 35/12 A2973 RMK A01 T03450120  RH  027%=      5-min Rain = 0
KRRS 291620Z 21016G23KT 35/12 A2973 RMK A01 T03480119  RH  026%=      5-min Rain = 0
KRRS 291625Z 22018G23KT 35/12 A2973 RMK A01 T03470115  RH  025%=      5-min Rain = 0
KRRS 291630Z 21017G23KT 35/12 A2973 RMK A01 T03490115  RH  025%=      5-min Rain = 0
KRRS 291635Z 21016G22KT 35/12 A2973 RMK A01 T03510115  RH  025%=      5-min Rain = 0
KRRS 291640Z 20017G23KT 35/11 A2973 RMK A01 T03540114  RH  024%=      5-min Rain = 0
KRRS 291645Z 21017G22KT 35/11 A2973 RMK A01 T03530109  RH  024%=      5-min Rain = 0
KRRS 291650Z 21015G21KT 35/11 A2973 RMK A01 T03540108  RH  023%=      5-min Rain = 0
KRRS 291655Z 21016G26KT 36/11 A2973 RMK A01 T03590108  RH  023%=      5-min Rain = 0
KRRS 291700Z 22014G23KT 36/10 A2973 RMK A01 T03580101  RH  022%=      5-min Rain = 0
KRRS 291705Z 20015G22KT 36/10 A2973 RMK A01 T03610100  RH  021%=      5-min Rain = 0
KRRS 291710Z 22014KT 36/10 A2973 RMK A01 T03630098  RH  021%=      5-min Rain = 0
KRRS 291715Z 22014G22KT 36/09 A2973 RMK A01 T03640094  RH  020%=      5-min Rain = 0
KRRS 291720Z 20015G23KT 37/10 A2973 RMK A01 T03680095  RH  020%=      5-min Rain = 0
KRRS 291725Z 20015G22KT 37/09 A2973 RMK A01 T03680091  RH  019%=      5-min Rain = 0
KRRS 291730Z 21015G21KT 37/09 A2973 RMK A01 T03710089  RH  019%=      5-min Rain = 0
KRRS 291735Z 22013G18KT 37/08 A2973 RMK A01 T03730082  RH  018%=      5-min Rain = 0
KRRS 291740Z 19014G19KT 37/08 A2973 RMK A01 T03700084  RH  018%=      5-min Rain = 0
KRRS 291745Z 19015G22KT 37/09 A2973 RMK A01 T03740085  RH  018%=      5-min Rain = 0
KRRS 291750Z 21013G20KT 37/08 A2972 RMK A01 T03730080  RH  017%=      5-min Rain = 0
KRRS 291755Z 19016KT 38/08 A2972 RMK A01 T03750077  RH  017%=      5-min Rain = 0
KRRS 291800Z 22013G21KT 38/07 A2972 RMK A01 T03760072  RH  016%=      5-min Rain = 0
KRRS 291805Z 22014G20KT 38/08 A2972 RMK A01 T03760075  RH  016%=      5-min Rain = 0
KRRS 291810Z 22015G24KT 38/07 A2972 RMK A01 T03790073  RH  016%=      5-min Rain = 0
KRRS 291815Z 21015G20KT 38/07 A2972 RMK A01 T03780072  RH  016%=      5-min Rain = 0
KRRS 291820Z 21017G26KT 38/07 A2972 RMK A01 T03800068  RH  015%=      5-min Rain = 0
KRRS 291825Z 22012G20KT 38/07 A2972 RMK A01 T03790069  RH  015%=      5-min Rain = 0
KRRS 291830Z 22015G21KT 38/07 A2972 RMK A01 T03840065  RH  015%=      5-min Rain = 0
KRRS 291835Z 22014G22KT 38/06 A2972 RMK A01 T03810057  RH  014%=      5-min Rain = 0
KRRS 291840Z 20014G19KT 38/06 A2972 RMK A01 T03820056  RH  014%=      5-min Rain = 0
KRRS 291845Z 23015G20KT 38/06 A2972 RMK A01 T03810056  RH  014%=      5-min Rain = 0
KRRS 291850Z 21011G18KT 38/05 A2972 RMK A01 T03790054  RH  014%=      5-min Rain = 0
KRRS 291855Z 19012G17KT 38/06 A2972 RMK A01 T03840058  RH  014%=      5-min Rain = 0
KRRS 291900Z 21018G25KT 39/06 A2971 RMK A01 T03880057  RH  013%=      5-min Rain = 0
KRRS 291905Z 20015G23KT 39/06 A2972 RMK A01 T03850056  RH  014%=      5-min Rain = 0
KRRS 291910Z 21016G27KT 39/06 A2971 RMK A01 T03890056  RH  013%=      5-min Rain = 0
KRRS 291915Z 22018G23KT 39/05 A2971 RMK A01 T03860050  RH  013%=      5-min Rain = 0
KRRS 291920Z 21013G19KT 39/05 A2971 RMK A01 T03850051  RH  013%=      5-min Rain = 0
KRRS 291925Z 21016G25KT 39/06 A2971 RMK A01 T03920055  RH  013%=      5-min Rain = 0
KRRS 291930Z 22015G20KT 39/05 A2971 RMK A01 T03890052  RH  013%=      5-min Rain = 0
KRRS 291935Z 22014G19KT 38/05 A2971 RMK A01 T03840050  RH  013%=      5-min Rain = 0
KRRS 291940Z 22017G23KT 39/05 A2971 RMK A01 T03890051  RH  013%=      5-min Rain = 0
KRRS 291945Z 22013G22KT 39/05 A2971 RMK A01 T03890050  RH  013%=      5-min Rain = 0
KRRS 291950Z 23013G19KT 39/05 A2971 RMK A01 T03890051  RH  013%=      5-min Rain = 0
KRRS 291955Z 24014G24KT 39/05 A2971 RMK A01 T03900047  RH  013%=      5-min Rain = 0
KRRS 292000Z 21016G22KT 39/05 A2971 RMK A01 T03920048  RH  012%=      5-min Rain = 0
KRRS 292005Z 23016G25KT 39/05 A2971 RMK A01 T03920047  RH  012%=      5-min Rain = 0
KRRS 292010Z 21013G25KT 39/05 A2971 RMK A01 T03910046  RH  012%=      5-min Rain = 0
KRRS 292015Z 20018G27KT 39/04 A2971 RMK A01 T03920044  RH  012%=      5-min Rain = 0
KRRS 292020Z 20017KT 39/04 A2971 RMK A01 T03920044  RH  012%=      5-min Rain = 0
KRRS 292025Z 23013G20KT 39/05 A2971 RMK A01 T03910046  RH  012%=      5-min Rain = 0
KRRS 292030Z 23018G23KT 39/05 A2971 RMK A01 T03930046  RH  012%=      5-min Rain = 0
KRRS 292035Z 23014G21KT 39/05 A2971 RMK A01 T03930046  RH  012%=      5-min Rain = 0
KRRS 292040Z 21018G24KT 39/04 A2971 RMK A01 T03940042  RH  012%=      5-min Rain = 0
KRRS 292045Z 21017G22KT 39/04 A2971 RMK A01 T03920044  RH  012%=      5-min Rain = 0
KRRS 292050Z 22016G27KT 39/04 A2971 RMK A01 T03930044  RH  012%=      5-min Rain = 0
KRRS 292055Z 23013G21KT 39/05 A2971 RMK A01 T03930045  RH  012%=      5-min Rain = 0
KRRS 292100Z 23015G20KT 39/05 A2971 RMK A01 T03930048  RH  012%=      5-min Rain = 0
KRRS 292105Z 23015G25KT 39/05 A297 RMK A01 T03920049  RH  013%=      5-min Rain = 0
KRRS 292110Z 21013G18KT 40/05 A297 RMK A01 T03950054  RH  013%=      5-min Rain = 0
KRRS 292115Z 22012G25KT 39/05 A297 RMK A01 T03930054  RH  013%=      5-min Rain = 0
KRRS 292120Z 22017G23KT 39/06 A297 RMK A01 T03940055  RH  013%=      5-min Rain = 0
KRRS 292125Z 21017G28KT 39/06 A2969 RMK A01 T03940055  RH  013%=      5-min Rain = 0
KRRS 292130Z 20019G25KT 39/05 A2969 RMK A01 T03940053  RH  013%=      5-min Rain = 0
KRRS 292135Z 20019G26KT 40/06 A2969 RMK A01 T03950055  RH  013%=      5-min Rain = 0
KRRS 292140Z 23017G24KT 40/06 A2969 RMK A01 T03950059  RH  013%=      5-min Rain = 0
KRRS 292145Z 21018G26KT 40/06 A2969 RMK A01 T03960061  RH  013%=      5-min Rain = 0
KRRS 292150Z 21021G27KT 40/06 A2968 RMK A01 T03980061  RH  013%=      5-min Rain = 0
KRRS 292155Z 23019G26KT 40/06 A2968 RMK A01 T03950058  RH  013%=      5-min Rain = 0
KRRS 292200Z 22018G26KT 40/06 A2969 RMK A01 T03980058  RH  013%=      5-min Rain = 0
KRRS 292205Z 21019G26KT 40/06 A2969 RMK A01 T03960056  RH  013%=      5-min Rain = 0
KRRS 292210Z 22017KT 40/06 A2969 RMK A01 T03960057  RH  013%=      5-min Rain = 0
KRRS 292215Z 23017G31KT 40/06 A2968 RMK A01 T03960058  RH  013%=      5-min Rain = 0
KRRS 292220Z 21021G30KT 40/06 A2968 RMK A01 T03950057  RH  013%=      5-min Rain = 0
KRRS 292225Z 23019G27KT 40/06 A2968 RMK A01 T03970057  RH  013%=      5-min Rain = 0
KRRS 292230Z 23022G28KT 39/06 A2968 RMK A01 T03920058  RH  013%=      5-min Rain = 0
KRRS 292235Z 23017G25KT 39/06 A2969 RMK A01 T03910060  RH  014%=      5-min Rain = 0
KRRS 292240Z 22018G30KT 39/06 A2968 RMK A01 T03900062  RH  014%=      5-min Rain = 0
KRRS 292245Z 22021G29KT 39/06 A2968 RMK A01 T03910063  RH  014%=      5-min Rain = 0
KRRS 292250Z 21019G25KT 39/07 A2968 RMK A01 T03900065  RH  014%=      5-min Rain = 0
KRRS 292255Z 23016G22KT 39/07 A2968 RMK A01 T03900068  RH  015%=      5-min Rain = 0
KRRS 292300Z 24016G25KT 39/07 A2968 RMK A01 T03900069  RH  015%=      5-min Rain = 0
KRRS 292305Z 23017G23KT 39/07 A2968 RMK A01 T03910069  RH  015%=      5-min Rain = 0
KRRS 292310Z 21017G24KT 39/07 A2968 RMK A01 T03900074  RH  015%=      5-min Rain = 0
KRRS 292315Z 22015G23KT 39/08 A2968 RMK A01 T03910077  RH  015%=      5-min Rain = 0
KRRS 292320Z 22016G22KT 39/07 A2968 RMK A01 T03890073  RH  015%=      5-min Rain = 0
KRRS 292325Z 23016G21KT 39/07 A2967 RMK A01 T03870073  RH  015%=      5-min Rain = 0
KRRS 292330Z 21015KT 39/08 A2967 RMK A01 T03890076  RH  015%=      5-min Rain = 0
KRRS 292335Z 22015G23KT 39/08 A2967 RMK A01 T03890077  RH  016%=      5-min Rain = 0
KRRS 292340Z 21014KT 39/08 A2967 RMK A01 T03920081  RH  016%=      5-min Rain = 0
KRRS 292345Z 19015G21KT 39/08 A2967 RMK A01 T03890083  RH  016%=      5-min Rain = 0
KRRS 292350Z 20013G19KT 39/08 A2967 RMK A01 T03880083  RH  016%=      5-min Rain = 0
KRRS 292355Z 21016G26KT 39/08 A2967 RMK A01 T03900075  RH  015%=      5-min Rain = 0
KRRS 300000Z 20014G19KT 39/07 A2967 RMK A01 T03890073  RH  015%=      5-min Rain = 0
KRRS 300005Z 20017G23KT 39/07 A2967 RMK A01 T03870070  RH  015%=      5-min Rain = 0
KRRS 300010Z 20018G23KT 39/07 A2967 RMK A01 T03850066  RH  015%=      5-min Rain = 0
KRRS 300015Z 22014G21KT 39/07 A2967 RMK A01 T03850066  RH  015%=      5-min Rain = 0
KRRS 300020Z 21017KT 38/06 A2967 RMK A01 T03820060  RH  014%=      5-min Rain = 0
KRRS 300025Z 22016G22KT 38/06 A2967 RMK A01 T03800055  RH  014%=      5-min Rain = 0
KRRS 300030Z 22014G22KT 38/06 A2967 RMK A01 T03800056  RH  014%=      5-min Rain = 0
KRRS 300035Z 21018G23KT 38/05 A2967 RMK A01 T03790054  RH  014%=      5-min Rain = 0
KRRS 300040Z 21017G23KT 38/05 A2967 RMK A01 T03780052  RH  014%=      5-min Rain = 0
KRRS 300045Z 22014G20KT 38/05 A2968 RMK A01 T03760051  RH  014%=      5-min Rain = 0
KRRS 300050Z 22015G20KT 38/05 A2968 RMK A01 T03750050  RH  014%=      5-min Rain = 0
KRRS 300055Z 22013KT 37/05 A2968 RMK A01 T03730051  RH  014%=      5-min Rain = 0
KRRS 300100Z 21017G22KT 37/05 A2968 RMK A01 T03720049  RH  014%=      5-min Rain = 0
KRRS 300105Z 22013KT 37/05 A2968 RMK A01 T03710049  RH  014%=      5-min Rain = 0
KRRS 300110Z 22012G17KT 37/05 A2968 RMK A01 T03690049  RH  014%=      5-min Rain = 0
KRRS 300115Z 21013KT 37/05 A2968 RMK A01 T03670047  RH  014%=      5-min Rain = 0
KRRS 300120Z 21012KT 36/05 A2968 RMK A01 T03640046  RH  014%=      5-min Rain = 0
KRRS 300125Z 22011G16KT 36/04 A2968 RMK A01 T03620043  RH  014%=      5-min Rain = 0
KRRS 300130Z 21011KT 36/04 A2969 RMK A01 T03600041  RH  014%=      5-min Rain = 0
KRRS 300135Z 21010KT 36/04 A2969 RMK A01 T03570041  RH  014%=      5-min Rain = 0
KRRS 300140Z 21010KT 36/04 A2969 RMK A01 T03550042  RH  015%=      5-min Rain = 0
KRRS 300145Z 21010KT 35/05 A2969 RMK A01 T03510045  RH  015%=      5-min Rain = 0
KRRS 300150Z 20009KT 35/05 A2969 RMK A01 T03470048  RH  016%=      5-min Rain = 0
KRRS 300155Z 20009KT 34/05 A2969 RMK A01 T03430050  RH  016%=      5-min Rain = 0
KRRS 300200Z 19009KT 34/05 A297 RMK A01 T03390052  RH  017%=      5-min Rain = 0
KRRS 300205Z 19009KT 34/05 A297 RMK A01 T03350054  RH  018%=      5-min Rain = 0
KRRS 300210Z 18009KT 33/06 A297 RMK A01 T03310055  RH  018%=      5-min Rain = 0
KRRS 300215Z 18008KT 33/06 A297 RMK A01 T03290056  RH  019%=      5-min Rain = 0
KRRS 300220Z 17007KT 33/06 A2971 RMK A01 T03260058  RH  019%=      5-min Rain = 0
KRRS 300225Z 15008G13KT 32/06 A2971 RMK A01 T03240062  RH  020%=      5-min Rain = 0
KRRS 300230Z 14017G28KT 31/15 A2972 RMK A01 T03130146  RH  038%=      5-min Rain = 0
KRRS 300235Z 14016G22KT 30/18 A2972 RMK A01 T03020180  RH  051%=      5-min Rain = 0
KRRS 300240Z 14017G25KT 30/19 A2972 RMK A01 T02950193  RH  057%=      5-min Rain = 0
KRRS 300245Z 14020G27KT 29/20 A2972 RMK A01 T02890198  RH  061%=      5-min Rain = 0
KRRS 300250Z 15020G25KT 29/19 A2972 RMK A01 T02850192  RH  060%=      5-min Rain = 0
KRRS 300255Z 15020G26KT 28/19 A2972 RMK A01 T02830187  RH  059%=      5-min Rain = 0
KRRS 300300Z 15019G29KT 28/18 A2973 RMK A01 T02810184  RH  058%=      5-min Rain = 0
KRRS 300305Z 15019G26KT 28/18 A2973 RMK A01 T02790182  RH  059%=      5-min Rain = 0
KRRS 300310Z 15019G24KT 28/18 A2974 RMK A01 T02770182  RH  059%=      5-min Rain = 0
KRRS 300315Z 15019G28KT 28/18 A2975 RMK A01 T02750183  RH  060%=      5-min Rain = 0
KRRS 300320Z 15020G30KT 27/19 A2975 RMK A01 T02740187  RH  062%=      5-min Rain = 0
KRRS 300325Z 16018G24KT 27/19 A2976 RMK A01 T02730192  RH  065%=      5-min Rain = 0
KRRS 300330Z 15019G29KT 27/19 A2976 RMK A01 T02710194  RH  066%=      5-min Rain = 0
KRRS 300335Z 16020G27KT 27/20 A2976 RMK A01 T02700197  RH  068%=      5-min Rain = 0
KRRS 300340Z 16017G23KT 27/20 A2977 RMK A01 T02690198  RH  069%=      5-min Rain = 0
KRRS 300345Z 16017G24KT 27/20 A2977 RMK A01 T02680199  RH  070%=      5-min Rain = 0
KRRS 300350Z 16019G29KT 27/20 A2977 RMK A01 T02670199  RH  070%=      5-min Rain = 0
KRRS 300355Z 16018G25KT 27/20 A2977 RMK A01 T02670200  RH  070%=      5-min Rain = 0
KRRS 300400Z 16017G23KT 27/20 A2977 RMK A01 T02670200  RH  071%=      5-min Rain = 0
KRRS 300405Z 16017G24KT 27/20 A2977 RMK A01 T02660199  RH  071%=      5-min Rain = 0
KRRS 300410Z 16017G22KT 27/20 A2978 RMK A01 T02660198  RH  070%=      5-min Rain = 0
KRRS 300415Z 16019G26KT 27/20 A2978 RMK A01 T02660197  RH  070%=      5-min Rain = 0
KRRS 300420Z 16014G19KT 27/20 A2978 RMK A01 T02650197  RH  070%=      5-min Rain = 0
KRRS 300425Z 16015G24KT 26/20 A2978 RMK A01 T02640196  RH  070%=      5-min Rain = 0
KRRS 300430Z 16017G26KT 27/20 A2978 RMK A01 T02650195  RH  069%=      5-min Rain = 0
KRRS 300435Z 17018G26KT 27/19 A2978 RMK A01 T02650194  RH  069%=      5-min Rain = 0
KRRS 300440Z 16017G25KT 26/19 A2978 RMK A01 T02640194  RH  069%=      5-min Rain = 0
KRRS 300445Z 17015G25KT 26/19 A2978 RMK A01 T02630194  RH  069%=      5-min Rain = 0
KRRS 300450Z 16016G25KT 26/19 A2978 RMK A01 T02620194  RH  070%=      5-min Rain = 0
KRRS 300455Z 17016G23KT 26/19 A2978 RMK A01 T02610193  RH  070%=      5-min Rain = 0

Page generated in 0.0095 seconds.